Route Details

Aircraft Information
Group: North America Fleet
Types: B738, B752, B762, B763
Route Data
Distance: 1428nm
Duration: 0h 00m
Origin METAR: KAFW 190953Z 11003KT 10SM CLR 24/21 A2996 RMK AO2 SLP130 T02390206
Dest. METAR: KSEA 190953Z 02008KT 10SM CLR 12/08 A2999 RMK AO2 SLP160 T01220078
Freight Data
(for Jun 19, 2024)
Load Factor:
43%
Manifested Cargo: 34,046lbs
Financial History
Total Freight: 227,350lbs
Average Load: 0lbs/flt
Fuel Used: 87,172lbs
Avg. Fuel Used: 0lbs/flt
Fuel Expense: $70,609
Avg. Fuel Expense: $0
Avg. Fuel Cost: $0/lbs
Total Gross Income: $322,837
Pilot Pay: $478
Total Expenses: $34,970
Total Revenue: $215,290
Average Revenue: $0

Capitol Logistics 372




KAFW
Fort Worth Alliance Airport
Fort Worth, Texas
KSEA
Seattle-Tacoma International Airport
Seattle, Washington

Activity Log

Date Flight Route Aircraft Duration
03/25/2021 CPX286 SWABR5 HUDAD PNH ALS JNC TCH TWF BKE PDT CHINS3 B763 3h 54m
04/14/2020 CPX286 SWABR5 HUDAD PNH ALS JNC TCH TWF BKE PDT CHINS3 B763 4h 19m